METAR Data
IDs: Format: Raw Decoded Include TAF

Data at: 2039 UTC 25 Oct 2021

EDDN 252020Z 11006KT CAVOK 07/06 Q1021